createdAt,value
2022-07-29T00:04:50.589Z,21.13
2022-07-29T00:14:52.191Z,21.05
2022-07-29T00:24:53.737Z,20.90
2022-07-29T00:35:14.148Z,20.57
2022-07-29T00:45:15.504Z,20.36
2022-07-29T00:55:17.001Z,19.98
2022-07-29T01:05:18.393Z,19.78
2022-07-29T01:15:19.805Z,19.58
2022-07-29T01:25:21.168Z,19.57
2022-07-29T01:35:22.538Z,19.29
2022-07-29T01:45:24.021Z,19.15
2022-07-29T01:55:25.405Z,19.02
2022-07-29T02:05:26.779Z,19.14
2022-07-29T02:15:28.218Z,19.03
2022-07-29T02:25:37.239Z,18.83
2022-07-29T02:35:39.659Z,18.68
2022-07-29T02:45:41.008Z,18.40
2022-07-29T02:55:42.541Z,18.27
2022-07-29T03:05:43.879Z,18.14
2022-07-29T03:15:45.276Z,18.09
2022-07-29T03:25:46.689Z,18.08
2022-07-29T03:35:48.104Z,18.01
2022-07-29T03:45:49.469Z,17.94
2022-07-29T03:55:50.713Z,17.78
2022-07-29T04:05:52.088Z,17.60
2022-07-29T04:15:53.567Z,17.51
2022-07-29T04:25:54.956Z,17.51
2022-07-29T04:35:56.260Z,17.63
2022-07-29T04:45:57.663Z,17.74
2022-07-29T04:55:59.258Z,17.92
2022-07-29T05:06:00.600Z,18.23
2022-07-29T05:16:02.036Z,18.63
2022-07-29T05:26:03.418Z,18.88
2022-07-29T05:36:06.551Z,19.08
2022-07-29T05:46:08.148Z,19.18
2022-07-29T05:56:10.233Z,19.38
2022-07-29T06:06:11.571Z,19.66
2022-07-29T06:16:12.964Z,20.06
2022-07-29T06:26:17.251Z,20.46
2022-07-29T06:36:18.587Z,21.18
2022-07-29T06:46:20.639Z,21.37
2022-07-29T06:56:22.088Z,21.61
2022-07-29T07:06:23.416Z,21.61
2022-07-29T07:16:24.815Z,22.30
2022-07-29T07:26:26.368Z,22.95
2022-07-29T07:36:27.695Z,22.93
2022-07-29T07:46:29.064Z,23.51
2022-07-29T07:56:35.024Z,24.17
2022-07-29T08:06:37.863Z,23.71
2022-07-29T08:16:39.320Z,23.76
2022-07-29T08:26:40.685Z,24.36
2022-07-29T08:36:42.032Z,24.71
2022-07-29T08:46:43.383Z,24.95
2022-07-29T08:56:44.709Z,25.35
2022-07-29T09:06:46.435Z,25.62
2022-07-29T09:16:53.273Z,25.58
2022-07-29T09:26:55.559Z,26.02
2022-07-29T09:36:58.137Z,25.37
2022-07-29T09:46:59.917Z,26.18
2022-07-29T09:57:01.310Z,26.30
2022-07-29T10:07:04.996Z,25.65
2022-07-29T10:17:06.682Z,25.84
2022-07-29T10:27:08.053Z,26.63
2022-07-29T10:37:10.151Z,26.86
2022-07-29T10:47:11.503Z,27.21
2022-07-29T10:57:13.729Z,26.86
2022-07-29T11:07:17.465Z,27.17
2022-07-29T11:17:18.926Z,28.62
2022-07-29T11:27:23.114Z,28.67
2022-07-29T11:37:27.971Z,28.48
2022-07-29T11:47:30.210Z,28.71
2022-07-29T11:57:39.680Z,28.36
2022-07-29T12:07:46.017Z,28.03
2022-07-29T12:17:48.956Z,28.55
2022-07-29T12:27:50.360Z,28.43
2022-07-29T12:37:53.202Z,28.91
2022-07-29T12:47:57.148Z,28.96
2022-07-29T12:57:58.634Z,29.19
2022-07-29T13:07:59.884Z,29.09
2022-07-29T13:18:01.954Z,29.19
2022-07-29T13:28:03.311Z,29.56
2022-07-29T13:38:04.653Z,29.08
2022-07-29T13:48:07.247Z,28.82
2022-07-29T13:58:08.594Z,28.71
2022-07-29T14:08:10.026Z,28.72
2022-07-29T14:18:11.339Z,28.96
2022-07-29T14:28:12.753Z,28.76
2022-07-29T14:38:16.140Z,29.16
2022-07-29T14:48:17.499Z,29.38
2022-07-29T14:58:19.216Z,29.17
2022-07-29T15:08:20.533Z,29.58
2022-07-29T15:18:25.592Z,29.66
2022-07-29T15:28:27.277Z,29.43
2022-07-29T15:38:29.124Z,29.31
2022-07-29T15:48:30.575Z,29.24
2022-07-29T15:58:31.965Z,28.77
2022-07-29T16:08:33.296Z,29.45
2022-07-29T16:18:34.904Z,29.96
2022-07-29T16:28:36.277Z,30.58
2022-07-29T16:38:38.216Z,30.25
2022-07-29T16:48:48.830Z,30.32
2022-07-29T16:58:50.127Z,30.15
2022-07-29T17:08:51.482Z,30.29
2022-07-29T17:18:52.904Z,29.84
2022-07-29T17:28:54.174Z,29.82
2022-07-29T17:38:55.547Z,29.57
2022-07-29T17:48:56.944Z,29.32
2022-07-29T17:59:01.454Z,29.23
2022-07-29T18:09:02.781Z,28.98
2022-07-29T18:19:04.126Z,28.56
2022-07-29T18:29:05.461Z,28.19
2022-07-29T18:39:10.600Z,27.54
2022-07-29T18:49:16.829Z,27.00
2022-07-29T18:59:20.216Z,26.64
2022-07-29T19:09:21.568Z,26.22
2022-07-29T19:19:22.901Z,25.96
2022-07-29T19:29:25.385Z,25.80
2022-07-29T19:39:35.267Z,25.74
2022-07-29T19:49:39.394Z,25.58
2022-07-29T19:59:40.767Z,25.43
2022-07-29T20:09:42.177Z,24.86
2022-07-29T20:19:43.653Z,24.58
2022-07-29T20:29:45.047Z,24.57
2022-07-29T20:39:49.568Z,24.44
2022-07-29T20:49:50.904Z,24.19
2022-07-29T20:59:52.273Z,23.95
2022-07-29T21:09:53.601Z,23.91
2022-07-29T21:19:55.414Z,23.68
2022-07-29T21:29:56.697Z,23.34
2022-07-29T21:40:01.625Z,23.09
2022-07-29T21:50:03.111Z,22.84
2022-07-29T22:00:04.441Z,22.79
2022-07-29T22:10:05.791Z,22.63
2022-07-29T22:20:07.143Z,22.65
2022-07-29T22:30:08.566Z,22.44
2022-07-29T22:40:12.015Z,22.28
2022-07-29T22:50:14.726Z,22.05
2022-07-29T23:00:16.183Z,21.83
2022-07-29T23:10:17.571Z,21.47
2022-07-29T23:20:22.554Z,21.24
2022-07-29T23:30:23.976Z,21.13
2022-07-29T23:40:26.639Z,20.95
2022-07-29T23:50:28.993Z,20.88
